sensor_id;sensor_type;location;lat;lon;timestamp;P1;durP1;ratioP1;P2;durP2;ratioP2
75890;SDS011;64571;47.512;19.054;2023-02-24T00:02:47;27.75;;;12.43;;
75890;SDS011;64571;47.512;19.054;2023-02-24T00:05:50;29.02;;;12.05;;
75890;SDS011;64571;47.512;19.054;2023-02-24T00:08:52;24.58;;;12.10;;
75890;SDS011;64571;47.512;19.054;2023-02-24T00:11:59;26.17;;;11.93;;
75890;SDS011;64571;47.512;19.054;2023-02-24T00:15:03;27.15;;;12.05;;
75890;SDS011;64571;47.512;19.054;2023-02-24T00:18:06;24.75;;;10.93;;
75890;SDS011;64571;47.512;19.054;2023-02-24T00:21:10;21.77;;;10.90;;
75890;SDS011;64571;47.512;19.054;2023-02-24T00:24:16;22.77;;;10.70;;
75890;SDS011;64571;47.512;19.054;2023-02-24T00:27:19;25.70;;;10.97;;
75890;SDS011;64571;47.512;19.054;2023-02-24T00:30:21;22.10;;;10.82;;
75890;SDS011;64571;47.512;19.054;2023-02-24T00:33:25;24.33;;;11.50;;
75890;SDS011;64571;47.512;19.054;2023-02-24T00:36:28;26.65;;;11.43;;
75890;SDS011;64571;47.512;19.054;2023-02-24T00:39:34;25.35;;;12.32;;
75890;SDS011;64571;47.512;19.054;2023-02-24T00:42:38;25.50;;;12.90;;
75890;SDS011;64571;47.512;19.054;2023-02-24T00:45:43;29.08;;;12.77;;
75890;SDS011;64571;47.512;19.054;2023-02-24T00:48:47;23.58;;;11.73;;
75890;SDS011;64571;47.512;19.054;2023-02-24T00:51:50;25.98;;;11.88;;
75890;SDS011;64571;47.512;19.054;2023-02-24T00:54:56;27.75;;;11.93;;
75890;SDS011;64571;47.512;19.054;2023-02-24T00:58:03;31.53;;;12.53;;
75890;SDS011;64571;47.512;19.054;2023-02-24T01:01:10;24.25;;;11.23;;
75890;SDS011;64571;47.512;19.054;2023-02-24T01:04:15;28.42;;;12.23;;
75890;SDS011;64571;47.512;19.054;2023-02-24T01:07:20;24.15;;;13.73;;
75890;SDS011;64571;47.512;19.054;2023-02-24T01:10:22;30.25;;;13.68;;
75890;SDS011;64571;47.512;19.054;2023-02-24T01:13:28;23.30;;;11.67;;
75890;SDS011;64571;47.512;19.054;2023-02-24T01:16:30;24.15;;;11.30;;
75890;SDS011;64571;47.512;19.054;2023-02-24T01:19:34;23.87;;;11.27;;
75890;SDS011;64571;47.512;19.054;2023-02-24T01:22:37;27.27;;;12.50;;
75890;SDS011;64571;47.512;19.054;2023-02-24T01:25:45;26.50;;;13.40;;
75890;SDS011;64571;47.512;19.054;2023-02-24T01:28:48;24.70;;;10.93;;
75890;SDS011;64571;47.512;19.054;2023-02-24T01:31:51;27.70;;;12.15;;
75890;SDS011;64571;47.512;19.054;2023-02-24T01:34:59;28.40;;;13.15;;
75890;SDS011;64571;47.512;19.054;2023-02-24T01:38:02;24.05;;;12.20;;
75890;SDS011;64571;47.512;19.054;2023-02-24T01:41:05;24.77;;;12.05;;
75890;SDS011;64571;47.512;19.054;2023-02-24T01:47:17;21.67;;;11.38;;
75890;SDS011;64571;47.512;19.054;2023-02-24T01:50:24;28.20;;;12.20;;
75890;SDS011;64571;47.512;19.054;2023-02-24T01:53:28;22.70;;;10.45;;
75890;SDS011;64571;47.512;19.054;2023-02-24T01:56:31;28.17;;;12.68;;
75890;SDS011;64571;47.512;19.054;2023-02-24T01:59:34;23.20;;;11.37;;
75890;SDS011;64571;47.512;19.054;2023-02-24T02:02:38;22.30;;;10.73;;
75890;SDS011;64571;47.512;19.054;2023-02-24T02:05:45;24.37;;;11.12;;
75890;SDS011;64571;47.512;19.054;2023-02-24T02:08:50;26.77;;;11.48;;
75890;SDS011;64571;47.512;19.054;2023-02-24T02:11:53;21.58;;;10.30;;
75890;SDS011;64571;47.512;19.054;2023-02-24T02:14:56;31.00;;;11.93;;
75890;SDS011;64571;47.512;19.054;2023-02-24T02:18:02;21.35;;;11.00;;
75890;SDS011;64571;47.512;19.054;2023-02-24T02:21:20;23.90;;;10.73;;
75890;SDS011;64571;47.512;19.054;2023-02-24T02:30:56;23.27;;;10.90;;
75890;SDS011;64571;47.512;19.054;2023-02-24T02:34:15;21.12;;;9.88;;
75890;SDS011;64571;47.512;19.054;2023-02-24T02:37:30;20.00;;;9.50;;
75890;SDS011;64571;47.512;19.054;2023-02-24T02:41:00;25.00;;;10.50;;
75890;SDS011;64571;47.512;19.054;2023-02-24T02:44:33;22.17;;;9.88;;
75890;SDS011;64571;47.512;19.054;2023-02-24T02:47:42;25.63;;;10.67;;
75890;SDS011;64571;47.512;19.054;2023-02-24T02:50:52;22.48;;;9.57;;
75890;SDS011;64571;47.512;19.054;2023-02-24T02:57:11;21.87;;;10.70;;
75890;SDS011;64571;47.512;19.054;2023-02-24T03:00:30;22.85;;;10.00;;
75890;SDS011;64571;47.512;19.054;2023-02-24T03:03:40;20.15;;;10.55;;
75890;SDS011;64571;47.512;19.054;2023-02-24T03:06:49;21.35;;;9.38;;
75890;SDS011;64571;47.512;19.054;2023-02-24T03:10:05;25.02;;;11.12;;
75890;SDS011;64571;47.512;19.054;2023-02-24T03:13:20;20.67;;;10.05;;
75890;SDS011;64571;47.512;19.054;2023-02-24T03:16:25;24.02;;;10.48;;
75890;SDS011;64571;47.512;19.054;2023-02-24T03:19:31;21.87;;;9.23;;
75890;SDS011;64571;47.512;19.054;2023-02-24T03:22:40;22.17;;;10.75;;
75890;SDS011;64571;47.512;19.054;2023-02-24T03:25:58;17.80;;;9.30;;
75890;SDS011;64571;47.512;19.054;2023-02-24T03:29:12;22.00;;;9.95;;
75890;SDS011;64571;47.512;19.054;2023-02-24T03:32:37;19.92;;;10.02;;
75890;SDS011;64571;47.512;19.054;2023-02-24T03:35:52;20.67;;;10.47;;
75890;SDS011;64571;47.512;19.054;2023-02-24T03:38:55;21.33;;;9.93;;
75890;SDS011;64571;47.512;19.054;2023-02-24T03:42:03;22.27;;;10.23;;
75890;SDS011;64571;47.512;19.054;2023-02-24T03:45:26;21.50;;;9.65;;
75890;SDS011;64571;47.512;19.054;2023-02-24T03:48:29;26.85;;;10.02;;
75890;SDS011;64571;47.512;19.054;2023-02-24T03:51:34;22.13;;;10.77;;
75890;SDS011;64571;47.512;19.054;2023-02-24T04:01:07;22.15;;;10.38;;
75890;SDS011;64571;47.512;19.054;2023-02-24T04:07:47;21.12;;;10.25;;
75890;SDS011;64571;47.512;19.054;2023-02-24T04:11:02;25.73;;;10.32;;
75890;SDS011;64571;47.512;19.054;2023-02-24T04:14:16;23.42;;;9.95;;
75890;SDS011;64571;47.512;19.054;2023-02-24T04:20:51;21.53;;;9.83;;
75890;SDS011;64571;47.512;19.054;2023-02-24T04:23:56;23.87;;;10.52;;
75890;SDS011;64571;47.512;19.054;2023-02-24T04:27:03;23.60;;;11.15;;
75890;SDS011;64571;47.512;19.054;2023-02-24T04:30:09;24.02;;;11.30;;
75890;SDS011;64571;47.512;19.054;2023-02-24T04:33:13;23.65;;;11.07;;
75890;SDS011;64571;47.512;19.054;2023-02-24T04:36:17;24.30;;;10.90;;
75890;SDS011;64571;47.512;19.054;2023-02-24T04:39:23;24.87;;;11.20;;
75890;SDS011;64571;47.512;19.054;2023-02-24T04:42:27;26.92;;;10.70;;
75890;SDS011;64571;47.512;19.054;2023-02-24T04:45:29;21.83;;;11.35;;
75890;SDS011;64571;47.512;19.054;2023-02-24T04:48:33;29.00;;;11.38;;
75890;SDS011;64571;47.512;19.054;2023-02-24T04:51:36;25.13;;;11.33;;
75890;SDS011;64571;47.512;19.054;2023-02-24T04:54:43;22.30;;;10.85;;
75890;SDS011;64571;47.512;19.054;2023-02-24T04:57:45;21.65;;;11.10;;
75890;SDS011;64571;47.512;19.054;2023-02-24T05:00:49;23.65;;;11.00;;
75890;SDS011;64571;47.512;19.054;2023-02-24T05:03:56;21.55;;;11.02;;
75890;SDS011;64571;47.512;19.054;2023-02-24T05:07:01;25.17;;;10.47;;
75890;SDS011;64571;47.512;19.054;2023-02-24T05:10:04;24.60;;;10.65;;
75890;SDS011;64571;47.512;19.054;2023-02-24T05:13:07;26.70;;;12.35;;
75890;SDS011;64571;47.512;19.054;2023-02-24T05:16:14;26.02;;;12.02;;
75890;SDS011;64571;47.512;19.054;2023-02-24T05:19:18;26.55;;;11.93;;
75890;SDS011;64571;47.512;19.054;2023-02-24T05:22:39;26.30;;;12.20;;
75890;SDS011;64571;47.512;19.054;2023-02-24T05:25:43;27.70;;;12.30;;
75890;SDS011;64571;47.512;19.054;2023-02-24T05:28:46;23.77;;;10.93;;
75890;SDS011;64571;47.512;19.054;2023-02-24T05:31:54;27.33;;;11.73;;
75890;SDS011;64571;47.512;19.054;2023-02-24T05:35:01;27.70;;;13.07;;
75890;SDS011;64571;47.512;19.054;2023-02-24T05:38:04;25.20;;;12.17;;
75890;SDS011;64571;47.512;19.054;2023-02-24T05:41:13;25.80;;;12.30;;
75890;SDS011;64571;47.512;19.054;2023-02-24T05:44:18;28.65;;;14.65;;
75890;SDS011;64571;47.512;19.054;2023-02-24T05:47:26;26.87;;;12.60;;
75890;SDS011;64571;47.512;19.054;2023-02-24T05:50:30;25.62;;;12.35;;
75890;SDS011;64571;47.512;19.054;2023-02-24T05:53:33;26.57;;;12.23;;
75890;SDS011;64571;47.512;19.054;2023-02-24T05:56:37;35.65;;;13.13;;
75890;SDS011;64571;47.512;19.054;2023-02-24T05:59:41;25.73;;;12.82;;
75890;SDS011;64571;47.512;19.054;2023-02-24T06:02:45;24.00;;;12.55;;
75890;SDS011;64571;47.512;19.054;2023-02-24T06:05:51;26.73;;;12.90;;
75890;SDS011;64571;47.512;19.054;2023-02-24T06:08:55;30.17;;;12.50;;
75890;SDS011;64571;47.512;19.054;2023-02-24T06:11:59;27.75;;;13.30;;
75890;SDS011;64571;47.512;19.054;2023-02-24T06:15:01;27.13;;;12.95;;
75890;SDS011;64571;47.512;19.054;2023-02-24T06:18:09;29.08;;;14.15;;
75890;SDS011;64571;47.512;19.054;2023-02-24T06:21:12;23.65;;;13.75;;
75890;SDS011;64571;47.512;19.054;2023-02-24T06:24:15;25.90;;;13.33;;
75890;SDS011;64571;47.512;19.054;2023-02-24T06:27:19;27.95;;;13.45;;
75890;SDS011;64571;47.512;19.054;2023-02-24T06:30:23;26.37;;;13.85;;
75890;SDS011;64571;47.512;19.054;2023-02-24T06:33:27;29.30;;;13.43;;
75890;SDS011;64571;47.512;19.054;2023-02-24T06:36:32;28.25;;;14.48;;
75890;SDS011;64571;47.512;19.054;2023-02-24T06:39:34;27.60;;;13.53;;
75890;SDS011;64571;47.512;19.054;2023-02-24T06:42:38;26.75;;;14.13;;
75890;SDS011;64571;47.512;19.054;2023-02-24T06:45:40;28.83;;;14.38;;
75890;SDS011;64571;47.512;19.054;2023-02-24T06:48:43;27.85;;;14.30;;
75890;SDS011;64571;47.512;19.054;2023-02-24T06:51:45;27.25;;;13.85;;
75890;SDS011;64571;47.512;19.054;2023-02-24T06:54:49;31.50;;;13.53;;
75890;SDS011;64571;47.512;19.054;2023-02-24T06:57:57;28.77;;;14.10;;
75890;SDS011;64571;47.512;19.054;2023-02-24T07:01:07;28.87;;;14.18;;
75890;SDS011;64571;47.512;19.054;2023-02-24T07:04:21;27.87;;;13.68;;
75890;SDS011;64571;47.512;19.054;2023-02-24T07:07:29;32.83;;;15.02;;
75890;SDS011;64571;47.512;19.054;2023-02-24T07:10:31;25.67;;;13.73;;
75890;SDS011;64571;47.512;19.054;2023-02-24T07:13:34;36.80;;;14.63;;
75890;SDS011;64571;47.512;19.054;2023-02-24T07:16:37;31.98;;;15.88;;
75890;SDS011;64571;47.512;19.054;2023-02-24T07:19:46;31.10;;;15.88;;
75890;SDS011;64571;47.512;19.054;2023-02-24T07:22:49;32.95;;;15.55;;
75890;SDS011;64571;47.512;19.054;2023-02-24T07:25:52;29.13;;;14.77;;
75890;SDS011;64571;47.512;19.054;2023-02-24T07:28:55;34.35;;;17.08;;
75890;SDS011;64571;47.512;19.054;2023-02-24T07:31:58;29.27;;;14.95;;
75890;SDS011;64571;47.512;19.054;2023-02-24T07:35:04;29.87;;;15.98;;
75890;SDS011;64571;47.512;19.054;2023-02-24T07:38:07;30.90;;;15.80;;
75890;SDS011;64571;47.512;19.054;2023-02-24T07:41:11;43.23;;;16.90;;
75890;SDS011;64571;47.512;19.054;2023-02-24T07:44:17;30.10;;;16.12;;
75890;SDS011;64571;47.512;19.054;2023-02-24T07:47:21;33.10;;;16.67;;
75890;SDS011;64571;47.512;19.054;2023-02-24T07:50:24;34.28;;;17.05;;
75890;SDS011;64571;47.512;19.054;2023-02-24T07:53:29;35.05;;;16.42;;
75890;SDS011;64571;47.512;19.054;2023-02-24T07:56:31;30.67;;;16.40;;
75890;SDS011;64571;47.512;19.054;2023-02-24T07:59:34;28.75;;;15.93;;
75890;SDS011;64571;47.512;19.054;2023-02-24T08:02:39;31.33;;;17.12;;
75890;SDS011;64571;47.512;19.054;2023-02-24T08:05:42;28.35;;;15.25;;
75890;SDS011;64571;47.512;19.054;2023-02-24T08:08:47;33.00;;;16.25;;
75890;SDS011;64571;47.512;19.054;2023-02-24T08:12:18;34.47;;;16.37;;
75890;SDS011;64571;47.512;19.054;2023-02-24T08:15:24;32.25;;;16.40;;
75890;SDS011;64571;47.512;19.054;2023-02-24T08:18:32;35.92;;;16.12;;
75890;SDS011;64571;47.512;19.054;2023-02-24T08:21:39;29.33;;;16.77;;
75890;SDS011;64571;47.512;19.054;2023-02-24T08:24:42;33.85;;;15.82;;
75890;SDS011;64571;47.512;19.054;2023-02-24T08:27:46;33.50;;;15.97;;
75890;SDS011;64571;47.512;19.054;2023-02-24T08:31:10;34.30;;;17.42;;
75890;SDS011;64571;47.512;19.054;2023-02-24T08:34:14;37.13;;;18.00;;
75890;SDS011;64571;47.512;19.054;2023-02-24T08:37:18;32.58;;;17.58;;
75890;SDS011;64571;47.512;19.054;2023-02-24T08:40:24;33.08;;;18.48;;
75890;SDS011;64571;47.512;19.054;2023-02-24T08:43:38;34.43;;;17.30;;
75890;SDS011;64571;47.512;19.054;2023-02-24T08:46:42;35.40;;;17.30;;
75890;SDS011;64571;47.512;19.054;2023-02-24T08:49:46;38.95;;;18.62;;
75890;SDS011;64571;47.512;19.054;2023-02-24T08:52:50;37.97;;;17.25;;
75890;SDS011;64571;47.512;19.054;2023-02-24T08:55:53;29.63;;;16.52;;
75890;SDS011;64571;47.512;19.054;2023-02-24T08:58:56;35.53;;;17.67;;
75890;SDS011;64571;47.512;19.054;2023-02-24T09:02:10;34.63;;;17.50;;
75890;SDS011;64571;47.512;19.054;2023-02-24T09:05:28;34.30;;;19.27;;
75890;SDS011;64571;47.512;19.054;2023-02-24T09:08:31;34.42;;;17.70;;
75890;SDS011;64571;47.512;19.054;2023-02-24T09:11:34;34.17;;;18.35;;
75890;SDS011;64571;47.512;19.054;2023-02-24T09:14:37;31.70;;;17.67;;
75890;SDS011;64571;47.512;19.054;2023-02-24T09:17:41;37.20;;;17.42;;
75890;SDS011;64571;47.512;19.054;2023-02-24T09:20:48;32.60;;;18.67;;
75890;SDS011;64571;47.512;19.054;2023-02-24T09:24:09;36.38;;;17.60;;
75890;SDS011;64571;47.512;19.054;2023-02-24T09:27:14;40.60;;;18.25;;
75890;SDS011;64571;47.512;19.054;2023-02-24T09:30:19;31.97;;;16.27;;
75890;SDS011;64571;47.512;19.054;2023-02-24T09:33:37;35.30;;;17.67;;
75890;SDS011;64571;47.512;19.054;2023-02-24T09:36:43;30.80;;;17.42;;
75890;SDS011;64571;47.512;19.054;2023-02-24T09:40:02;34.13;;;16.77;;
75890;SDS011;64571;47.512;19.054;2023-02-24T09:43:34;33.83;;;18.23;;
75890;SDS011;64571;47.512;19.054;2023-02-24T09:46:50;38.83;;;17.63;;
75890;SDS011;64571;47.512;19.054;2023-02-24T09:49:59;30.77;;;16.62;;
75890;SDS011;64571;47.512;19.054;2023-02-24T09:53:15;31.50;;;17.62;;
75890;SDS011;64571;47.512;19.054;2023-02-24T09:56:20;36.90;;;18.37;;
75890;SDS011;64571;47.512;19.054;2023-02-24T09:59:46;36.03;;;21.65;;
75890;SDS011;64571;47.512;19.054;2023-02-24T10:03:26;32.23;;;16.43;;
75890;SDS011;64571;47.512;19.054;2023-02-24T10:06:44;31.77;;;16.75;;
75890;SDS011;64571;47.512;19.054;2023-02-24T10:09:51;40.45;;;18.58;;
75890;SDS011;64571;47.512;19.054;2023-02-24T10:13:13;36.55;;;18.65;;
75890;SDS011;64571;47.512;19.054;2023-02-24T10:16:35;35.60;;;18.80;;
75890;SDS011;64571;47.512;19.054;2023-02-24T10:19:44;31.23;;;16.50;;
75890;SDS011;64571;47.512;19.054;2023-02-24T10:23:04;31.65;;;16.70;;
75890;SDS011;64571;47.512;19.054;2023-02-24T10:26:17;27.98;;;16.33;;
75890;SDS011;64571;47.512;19.054;2023-02-24T10:32:49;33.97;;;16.77;;
75890;SDS011;64571;47.512;19.054;2023-02-24T10:36:06;32.37;;;16.63;;
75890;SDS011;64571;47.512;19.054;2023-02-24T10:39:22;34.00;;;18.15;;
75890;SDS011;64571;47.512;19.054;2023-02-24T10:42:31;29.87;;;16.05;;
75890;SDS011;64571;47.512;19.054;2023-02-24T10:45:39;33.92;;;17.23;;
75890;SDS011;64571;47.512;19.054;2023-02-24T10:48:51;30.25;;;17.75;;
75890;SDS011;64571;47.512;19.054;2023-02-24T10:52:01;34.30;;;18.00;;
75890;SDS011;64571;47.512;19.054;2023-02-24T10:55:13;33.92;;;18.10;;
75890;SDS011;64571;47.512;19.054;2023-02-24T10:58:40;33.08;;;18.17;;
75890;SDS011;64571;47.512;19.054;2023-02-24T11:01:50;37.17;;;17.77;;
75890;SDS011;64571;47.512;19.054;2023-02-24T11:05:25;33.83;;;18.05;;
75890;SDS011;64571;47.512;19.054;2023-02-24T11:08:39;35.00;;;16.70;;
75890;SDS011;64571;47.512;19.054;2023-02-24T11:11:47;33.35;;;17.35;;
75890;SDS011;64571;47.512;19.054;2023-02-24T11:18:46;35.80;;;17.73;;
75890;SDS011;64571;47.512;19.054;2023-02-24T11:21:54;34.63;;;19.62;;
75890;SDS011;64571;47.512;19.054;2023-02-24T11:24:59;33.40;;;17.87;;
75890;SDS011;64571;47.512;19.054;2023-02-24T11:35:20;31.50;;;16.45;;
75890;SDS011;64571;47.512;19.054;2023-02-24T11:41:34;33.53;;;18.07;;
75890;SDS011;64571;47.512;19.054;2023-02-24T11:45:00;32.95;;;18.00;;
75890;SDS011;64571;47.512;19.054;2023-02-24T11:51:29;34.88;;;17.80;;
75890;SDS011;64571;47.512;19.054;2023-02-24T11:54:37;37.65;;;19.17;;
75890;SDS011;64571;47.512;19.054;2023-02-24T11:57:46;32.37;;;16.70;;
75890;SDS011;64571;47.512;19.054;2023-02-24T12:00:54;35.90;;;18.77;;
75890;SDS011;64571;47.512;19.054;2023-02-24T12:07:18;34.67;;;19.25;;
75890;SDS011;64571;47.512;19.054;2023-02-24T12:10:28;32.97;;;19.92;;
75890;SDS011;64571;47.512;19.054;2023-02-24T12:13:41;35.77;;;18.47;;
75890;SDS011;64571;47.512;19.054;2023-02-24T12:16:59;32.95;;;18.15;;
75890;SDS011;64571;47.512;19.054;2023-02-24T12:23:29;39.95;;;19.92;;
75890;SDS011;64571;47.512;19.054;2023-02-24T12:26:36;37.92;;;18.98;;
75890;SDS011;64571;47.512;19.054;2023-02-24T12:29:59;34.60;;;20.23;;
75890;SDS011;64571;47.512;19.054;2023-02-24T12:43:05;38.17;;;19.58;;
75890;SDS011;64571;47.512;19.054;2023-02-24T12:49:33;33.00;;;18.35;;
75890;SDS011;64571;47.512;19.054;2023-02-24T12:56:14;33.60;;;18.87;;
75890;SDS011;64571;47.512;19.054;2023-02-24T12:59:24;35.78;;;19.30;;
75890;SDS011;64571;47.512;19.054;2023-02-24T13:16:26;33.25;;;17.35;;
75890;SDS011;64571;47.512;19.054;2023-02-24T13:19:40;30.70;;;16.30;;
75890;SDS011;64571;47.512;19.054;2023-02-24T13:22:48;35.90;;;17.50;;
75890;SDS011;64571;47.512;19.054;2023-02-24T13:25:52;35.55;;;17.62;;
75890;SDS011;64571;47.512;19.054;2023-02-24T13:29:08;33.13;;;16.60;;
75890;SDS011;64571;47.512;19.054;2023-02-24T13:32:57;36.10;;;18.62;;
75890;SDS011;64571;47.512;19.054;2023-02-24T13:35:46;33.63;;;16.80;;
75890;SDS011;64571;47.512;19.054;2023-02-24T13:38:51;35.00;;;18.05;;
75890;SDS011;64571;47.512;19.054;2023-02-24T13:42:22;35.67;;;18.50;;
75890;SDS011;64571;47.512;19.054;2023-02-24T13:45:31;37.75;;;19.85;;
75890;SDS011;64571;47.512;19.054;2023-02-24T13:59:09;34.60;;;18.08;;
75890;SDS011;64571;47.512;19.054;2023-02-24T14:02:17;39.30;;;17.70;;
75890;SDS011;64571;47.512;19.054;2023-02-24T14:05:30;33.40;;;16.50;;
75890;SDS011;64571;47.512;19.054;2023-02-24T14:11:44;30.20;;;15.18;;
75890;SDS011;64571;47.512;19.054;2023-02-24T14:14:46;31.92;;;15.50;;
75890;SDS011;64571;47.512;19.054;2023-02-24T14:17:57;33.72;;;15.02;;
75890;SDS011;64571;47.512;19.054;2023-02-24T14:21:05;29.85;;;15.88;;
75890;SDS011;64571;47.512;19.054;2023-02-24T14:24:11;30.43;;;15.50;;
75890;SDS011;64571;47.512;19.054;2023-02-24T14:27:21;30.02;;;14.70;;
75890;SDS011;64571;47.512;19.054;2023-02-24T14:30:30;32.80;;;15.68;;
75890;SDS011;64571;47.512;19.054;2023-02-24T14:33:36;29.70;;;15.40;;
75890;SDS011;64571;47.512;19.054;2023-02-24T14:36:41;31.77;;;16.48;;
75890;SDS011;64571;47.512;19.054;2023-02-24T14:39:50;29.90;;;15.33;;
75890;SDS011;64571;47.512;19.054;2023-02-24T14:42:54;29.20;;;15.52;;
75890;SDS011;64571;47.512;19.054;2023-02-24T14:46:02;32.00;;;15.23;;
75890;SDS011;64571;47.512;19.054;2023-02-24T14:49:12;28.55;;;15.45;;
75890;SDS011;64571;47.512;19.054;2023-02-24T14:55:28;33.23;;;15.97;;
75890;SDS011;64571;47.512;19.054;2023-02-24T15:02:04;33.22;;;15.95;;
75890;SDS011;64571;47.512;19.054;2023-02-24T15:05:16;28.73;;;15.30;;
75890;SDS011;64571;47.512;19.054;2023-02-24T15:11:45;31.27;;;15.33;;
75890;SDS011;64571;47.512;19.054;2023-02-24T15:15:20;33.15;;;16.55;;
75890;SDS011;64571;47.512;19.054;2023-02-24T15:18:26;36.25;;;17.48;;
75890;SDS011;64571;47.512;19.054;2023-02-24T15:21:31;31.17;;;15.50;;
75890;SDS011;64571;47.512;19.054;2023-02-24T15:24:35;33.85;;;17.23;;
75890;SDS011;64571;47.512;19.054;2023-02-24T15:27:47;32.17;;;17.03;;
75890;SDS011;64571;47.512;19.054;2023-02-24T15:30:55;35.92;;;15.80;;
75890;SDS011;64571;47.512;19.054;2023-02-24T15:34:12;34.55;;;17.45;;
75890;SDS011;64571;47.512;19.054;2023-02-24T15:37:28;32.38;;;16.25;;
75890;SDS011;64571;47.512;19.054;2023-02-24T15:40:37;35.22;;;16.50;;
75890;SDS011;64571;47.512;19.054;2023-02-24T15:46:48;36.65;;;17.08;;
75890;SDS011;64571;47.512;19.054;2023-02-24T15:49:51;35.17;;;17.02;;
75890;SDS011;64571;47.512;19.054;2023-02-24T15:52:58;39.65;;;17.35;;
75890;SDS011;64571;47.512;19.054;2023-02-24T15:56:05;33.47;;;15.70;;
75890;SDS011;64571;47.512;19.054;2023-02-24T15:59:11;33.17;;;17.27;;
75890;SDS011;64571;47.512;19.054;2023-02-24T16:02:16;30.37;;;16.10;;
75890;SDS011;64571;47.512;19.054;2023-02-24T16:05:21;35.22;;;17.23;;
75890;SDS011;64571;47.512;19.054;2023-02-24T16:08:23;33.13;;;16.27;;
75890;SDS011;64571;47.512;19.054;2023-02-24T16:11:27;39.13;;;18.02;;
75890;SDS011;64571;47.512;19.054;2023-02-24T16:14:34;37.37;;;19.27;;
75890;SDS011;64571;47.512;19.054;2023-02-24T16:17:38;39.10;;;18.40;;
75890;SDS011;64571;47.512;19.054;2023-02-24T16:20:42;37.25;;;19.00;;
75890;SDS011;64571;47.512;19.054;2023-02-24T16:23:45;41.28;;;17.12;;
75890;SDS011;64571;47.512;19.054;2023-02-24T16:26:48;37.00;;;18.83;;
75890;SDS011;64571;47.512;19.054;2023-02-24T16:29:50;37.23;;;18.13;;
75890;SDS011;64571;47.512;19.054;2023-02-24T16:32:54;40.30;;;18.23;;
75890;SDS011;64571;47.512;19.054;2023-02-24T16:35:58;39.83;;;19.05;;
75890;SDS011;64571;47.512;19.054;2023-02-24T16:39:00;41.42;;;18.73;;
75890;SDS011;64571;47.512;19.054;2023-02-24T16:42:02;35.13;;;18.45;;
75890;SDS011;64571;47.512;19.054;2023-02-24T16:45:09;39.77;;;18.70;;
75890;SDS011;64571;47.512;19.054;2023-02-24T16:48:17;38.58;;;16.70;;
75890;SDS011;64571;47.512;19.054;2023-02-24T16:51:22;39.88;;;18.25;;
75890;SDS011;64571;47.512;19.054;2023-02-24T16:54:25;37.13;;;17.58;;
75890;SDS011;64571;47.512;19.054;2023-02-24T16:57:30;38.17;;;18.12;;
75890;SDS011;64571;47.512;19.054;2023-02-24T17:00:33;38.40;;;17.03;;
75890;SDS011;64571;47.512;19.054;2023-02-24T17:03:42;33.00;;;16.10;;
75890;SDS011;64571;47.512;19.054;2023-02-24T17:06:46;44.03;;;18.67;;
75890;SDS011;64571;47.512;19.054;2023-02-24T17:09:49;36.92;;;18.08;;
75890;SDS011;64571;47.512;19.054;2023-02-24T17:12:52;40.78;;;19.20;;
75890;SDS011;64571;47.512;19.054;2023-02-24T17:15:54;38.30;;;18.10;;
75890;SDS011;64571;47.512;19.054;2023-02-24T17:18:58;43.67;;;18.05;;
75890;SDS011;64571;47.512;19.054;2023-02-24T17:22:01;39.70;;;18.95;;
75890;SDS011;64571;47.512;19.054;2023-02-24T17:25:04;37.05;;;17.92;;
75890;SDS011;64571;47.512;19.054;2023-02-24T17:28:08;38.88;;;18.50;;
75890;SDS011;64571;47.512;19.054;2023-02-24T17:31:12;40.63;;;17.70;;
75890;SDS011;64571;47.512;19.054;2023-02-24T17:34:14;40.90;;;17.73;;
75890;SDS011;64571;47.512;19.054;2023-02-24T17:37:17;38.47;;;17.90;;
75890;SDS011;64571;47.512;19.054;2023-02-24T17:40:19;42.47;;;17.58;;
75890;SDS011;64571;47.512;19.054;2023-02-24T17:43:22;35.42;;;15.55;;
75890;SDS011;64571;47.512;19.054;2023-02-24T17:46:25;31.60;;;14.33;;
75890;SDS011;64571;47.512;19.054;2023-02-24T17:49:28;35.13;;;14.77;;
75890;SDS011;64571;47.512;19.054;2023-02-24T17:52:30;29.83;;;14.40;;
75890;SDS011;64571;47.512;19.054;2023-02-24T17:55:33;33.22;;;13.85;;
75890;SDS011;64571;47.512;19.054;2023-02-24T17:58:36;31.48;;;14.70;;
75890;SDS011;64571;47.512;19.054;2023-02-24T18:01:39;33.80;;;14.13;;
75890;SDS011;64571;47.512;19.054;2023-02-24T18:04:42;31.80;;;14.65;;
75890;SDS011;64571;47.512;19.054;2023-02-24T18:07:44;31.83;;;13.95;;
75890;SDS011;64571;47.512;19.054;2023-02-24T18:10:47;27.67;;;13.38;;
75890;SDS011;64571;47.512;19.054;2023-02-24T18:13:49;37.42;;;14.38;;
75890;SDS011;64571;47.512;19.054;2023-02-24T18:16:53;29.17;;;15.13;;
75890;SDS011;64571;47.512;19.054;2023-02-24T18:19:56;30.83;;;14.95;;
75890;SDS011;64571;47.512;19.054;2023-02-24T18:22:59;34.20;;;17.17;;
75890;SDS011;64571;47.512;19.054;2023-02-24T18:26:02;35.70;;;15.70;;
75890;SDS011;64571;47.512;19.054;2023-02-24T18:29:05;33.10;;;15.10;;
75890;SDS011;64571;47.512;19.054;2023-02-24T18:32:08;27.77;;;13.50;;
75890;SDS011;64571;47.512;19.054;2023-02-24T18:35:11;31.73;;;12.82;;
75890;SDS011;64571;47.512;19.054;2023-02-24T18:38:15;30.62;;;14.40;;
75890;SDS011;64571;47.512;19.054;2023-02-24T18:41:19;30.33;;;14.07;;
75890;SDS011;64571;47.512;19.054;2023-02-24T18:44:22;28.42;;;13.75;;
75890;SDS011;64571;47.512;19.054;2023-02-24T18:47:25;35.37;;;14.03;;
75890;SDS011;64571;47.512;19.054;2023-02-24T18:50:28;27.85;;;12.93;;
75890;SDS011;64571;47.512;19.054;2023-02-24T18:53:31;29.17;;;14.57;;
75890;SDS011;64571;47.512;19.054;2023-02-24T18:56:37;27.58;;;12.63;;
75890;SDS011;64571;47.512;19.054;2023-02-24T18:59:40;25.48;;;12.98;;
75890;SDS011;64571;47.512;19.054;2023-02-24T19:02:42;31.00;;;12.53;;
75890;SDS011;64571;47.512;19.054;2023-02-24T19:05:45;27.45;;;12.35;;
75890;SDS011;64571;47.512;19.054;2023-02-24T19:08:48;28.90;;;12.20;;
75890;SDS011;64571;47.512;19.054;2023-02-24T19:11:56;26.10;;;11.82;;
75890;SDS011;64571;47.512;19.054;2023-02-24T19:14:59;29.33;;;12.52;;
75890;SDS011;64571;47.512;19.054;2023-02-24T19:18:02;27.87;;;11.43;;
75890;SDS011;64571;47.512;19.054;2023-02-24T19:21:05;29.12;;;12.95;;
75890;SDS011;64571;47.512;19.054;2023-02-24T19:24:10;30.80;;;12.20;;
75890;SDS011;64571;47.512;19.054;2023-02-24T19:27:14;28.92;;;12.02;;
75890;SDS011;64571;47.512;19.054;2023-02-24T19:30:17;33.97;;;12.23;;
75890;SDS011;64571;47.512;19.054;2023-02-24T19:33:20;29.20;;;12.40;;
75890;SDS011;64571;47.512;19.054;2023-02-24T19:36:23;25.73;;;12.63;;
75890;SDS011;64571;47.512;19.054;2023-02-24T19:39:26;34.20;;;11.65;;
75890;SDS011;64571;47.512;19.054;2023-02-24T19:42:29;27.45;;;11.52;;
75890;SDS011;64571;47.512;19.054;2023-02-24T19:45:31;26.35;;;13.20;;
75890;SDS011;64571;47.512;19.054;2023-02-24T19:48:34;26.80;;;12.07;;
75890;SDS011;64571;47.512;19.054;2023-02-24T19:51:37;30.80;;;11.55;;